Time;durP1;ratioP1;P1;durP2;ratioP2;P2;SDS_P1;SDS_P2;PMS_P1;PMS_P2;Temp;Humidity;BMP_temperature;BMP_pressure;BME280_temperature;BME280_humidity;BME280_pressure;Samples;Min_cycle;Max_cycle;Signal;HPM_P1;HPM_P2
2023/02/26 00:02:05;;;;;;;18.85;8.98;;;;;;;8.49;78.57;95518.47;6155619;23;20068;-62
2023/02/26 00:04:33;;;;;;;21.92;9.43;;;;;;;8.59;77.63;95516.34;6155815;23;20018;-63
2023/02/26 00:07:03;;;;;;;22.50;8.65;;;;;;;8.64;77.14;95521.34;6156114;23;20021;-62
2023/02/26 00:09:30;;;;;;;21.88;8.48;;;;;;;8.59;75.96;95518.97;6155892;23;20352;-62
2023/02/26 00:11:58;;;;;;;21.38;8.65;;;;;;;8.58;76.62;95514.66;6155699;23;20025;-63
2023/02/26 00:14:26;;;;;;;23.40;9.57;;;;;;;8.58;76.62;95519.88;6155723;23;20097;-63
2023/02/26 00:17:07;;;;;;;19.77;9.45;;;;;;;8.61;76.38;95508.47;6155392;23;20025;-63
2023/02/26 00:19:37;;;;;;;28.92;9.52;;;;;;;8.54;76.43;95518.31;6157626;23;20108;-62
2023/02/26 00:22:05;;;;;;;22.08;9.60;;;;;;;8.46;75.07;95516.06;6157279;23;20022;-62
2023/02/26 00:24:32;;;;;;;18.63;9.25;;;;;;;8.28;74.89;95518.56;6157514;23;20033;-62
2023/02/26 00:27:00;;;;;;;18.75;9.23;;;;;;;8.17;77.31;95524.28;6157766;23;20017;-63
2023/02/26 00:29:27;;;;;;;20.60;8.45;;;;;;;8.14;78.30;95524.41;6157264;23;20471;-62
2023/02/26 00:31:55;;;;;;;18.83;8.93;;;;;;;8.21;79.09;95523.22;6157738;23;20017;-63
2023/02/26 00:34:23;;;;;;;27.45;8.05;;;;;;;8.27;77.30;95523.84;6157450;23;20460;-62
2023/02/26 00:37:03;;;;;;;23.65;10.00;;;;;;;8.25;77.25;95529.13;6157682;23;20436;-60
2023/02/26 00:39:41;;;;;;;19.42;8.15;;;;;;;8.32;77.96;95525.34;6157680;23;20372;-62
2023/02/26 00:42:09;;;;;;;17.98;8.05;;;;;;;8.31;76.49;95521.03;6157519;23;20410;-62
2023/02/26 00:44:36;;;;;;;30.02;10.40;;;;;;;8.32;76.60;95509.72;6157248;23;20029;-62
2023/02/26 00:47:10;;;;;;;16.23;8.45;;;;;;;8.28;76.96;95510.75;6157350;23;20076;-63
2023/02/26 00:49:49;;;;;;;19.23;9.02;;;;;;;8.32;76.62;95503.63;6157300;23;20029;-62
2023/02/26 00:52:26;;;;;;;25.17;9.80;;;;;;;8.21;77.64;95493.69;6157261;23;20025;-62
2023/02/26 00:54:53;;;;;;;16.42;8.68;;;;;;;8.19;77.53;95493.75;6157196;23;20018;-63
2023/02/26 00:57:20;;;;;;;18.45;8.80;;;;;;;8.23;77.99;95499.69;6157184;23;20025;-62
2023/02/26 00:59:48;;;;;;;28.40;9.75;;;;;;;8.33;77.88;95500.09;6157190;23;20018;-62
2023/02/26 01:02:15;;;;;;;17.67;8.55;;;;;;;8.32;77.42;95501.88;6156974;23;20026;-62
2023/02/26 01:04:43;;;;;;;22.10;8.20;;;;;;;8.20;77.65;95499.84;6157537;23;20021;-62
2023/02/26 01:07:11;;;;;;;23.08;9.63;;;;;;;8.17;78.17;95497.38;6157093;23;20344;-62
2023/02/26 01:09:40;;;;;;;22.38;8.00;;;;;;;8.20;77.95;95495.47;6156986;23;20072;-62
2023/02/26 01:12:11;;;;;;;19.38;7.35;;;;;;;8.15;77.44;95504.38;6157060;23;20084;-62
2023/02/26 01:14:39;;;;;;;22.13;7.97;;;;;;;8.12;76.59;95492.34;6157204;23;20022;-62
2023/02/26 01:17:16;;;;;;;23.20;8.82;;;;;;;7.96;78.11;95489.59;6156620;23;20022;-62
2023/02/26 01:19:48;;;;;;;22.00;8.93;;;;;;;7.93;77.59;95474.09;6156936;23;20040;-63
2023/02/26 01:22:21;;;;;;;17.42;8.88;;;;;;;7.85;78.77;95479.66;6156806;23;20077;-62
2023/02/26 01:25:03;;;;;;;15.07;8.23;;;;;;;7.89;78.00;95482.97;6157248;23;20136;-62
2023/02/26 01:27:31;;;;;;;31.63;12.73;;;;;;;7.81;77.78;95472.91;6156916;23;20100;-63
2023/02/26 01:29:59;;;;;;;25.17;12.23;;;;;;;7.79;78.29;95487.72;6157058;23;20021;-62
2023/02/26 01:32:35;;;;;;;17.83;9.93;;;;;;;7.72;78.00;95479.34;6156777;23;20044;-61
2023/02/26 01:35:10;;;;;;;20.70;9.38;;;;;;;7.62;79.46;95475.47;6156810;23;20017;-62
2023/02/26 01:37:44;;;;;;;17.65;8.35;;;;;;;7.73;79.76;95485.41;6156754;23;20049;-62
2023/02/26 01:40:35;;;;;;;16.90;7.78;;;;;;;7.70;78.98;95478.56;6156703;23;20025;-62
2023/02/26 01:43:10;;;;;;;17.70;8.55;;;;;;;7.74;78.63;95481.88;6157033;23;20096;-62
2023/02/26 01:45:46;;;;;;;18.73;8.27;;;;;;;7.70;78.69;95483.75;6156681;23;20049;-62
2023/02/26 01:48:22;;;;;;;14.43;7.75;;;;;;;7.74;78.80;95482.75;6156663;23;20080;-62
2023/02/26 01:50:49;;;;;;;20.60;9.13;;;;;;;7.73;78.79;95475.81;6156560;23;20333;-62
2023/02/26 01:53:19;;;;;;;16.77;7.53;;;;;;;7.69;79.48;95471.66;6156868;23;20024;-62
2023/02/26 01:55:52;;;;;;;28.38;8.77;;;;;;;7.76;80.11;95478.28;6156734;23;20021;-62
2023/02/26 01:58:22;;;;;;;21.27;7.53;;;;;;;7.75;79.33;95476.63;6156957;23;20045;-62
2023/02/26 02:00:50;;;;;;;21.33;8.38;;;;;;;7.75;79.55;95473.16;6156412;23;20029;-62
2023/02/26 02:03:19;;;;;;;17.60;7.72;;;;;;;7.63;79.28;95467.59;6156544;23;20104;-62
2023/02/26 02:05:51;;;;;;;14.80;7.47;;;;;;;7.60;79.92;95472.91;6156523;23;20464;-62
2023/02/26 02:08:20;;;;;;;33.78;8.98;;;;;;;7.58;80.11;95474.72;6156742;23;20022;-62
2023/02/26 02:10:51;;;;;;;18.13;8.07;;;;;;;7.56;80.79;95481.78;6156781;23;20022;-62
2023/02/26 02:13:35;;;;;;;19.95;7.82;;;;;;;7.55;80.26;95482.66;6156438;23;20033;-62
2023/02/26 02:16:17;;;;;;;18.65;8.05;;;;;;;7.55;79.70;95487.88;6156115;23;20454;-62
2023/02/26 02:18:53;;;;;;;18.90;7.72;;;;;;;7.59;79.84;95497.25;6156702;23;20021;-63
2023/02/26 02:21:53;;;;;;;16.75;7.53;;;;;;;7.46;80.42;95489.13;6156607;23;20044;-61
2023/02/26 02:24:29;;;;;;;25.13;9.37;;;;;;;7.42;81.15;95491.00;6156375;23;20076;-62
2023/02/26 02:27:03;;;;;;;20.90;8.35;;;;;;;7.46;80.79;95496.91;6156666;23;20021;-62
2023/02/26 02:30:03;;;;;;;20.38;8.48;;;;;;;7.42;81.22;95501.44;6156310;23;20022;-61
2023/02/26 02:32:37;;;;;;;17.87;8.60;;;;;;;7.41;81.07;95504.91;6156208;23;20018;-62
2023/02/26 02:35:09;;;;;;;21.88;7.70;;;;;;;7.47;81.15;95511.66;6156225;23;20022;-61
2023/02/26 02:37:41;;;;;;;23.63;8.95;;;;;;;7.49;80.40;95498.56;6156489;23;20029;-62
2023/02/26 02:40:12;;;;;;;26.73;7.63;;;;;;;7.49;80.13;95515.00;6156171;23;20022;-62
2023/02/26 02:42:44;;;;;;;23.60;9.55;;;;;;;7.46;80.36;95516.00;6156476;23;20076;-62
2023/02/26 02:45:24;;;;;;;24.27;8.05;;;;;;;7.52;80.47;95522.69;6156033;23;20022;-62
2023/02/26 02:47:57;;;;;;;20.77;8.00;;;;;;;7.50;80.10;95515.88;6156195;23;20080;-62
2023/02/26 02:50:30;;;;;;;21.45;8.98;;;;;;;7.42;80.55;95522.25;6156085;23;20080;-62
2023/02/26 02:53:01;;;;;;;19.35;9.07;;;;;;;7.49;80.71;95517.59;6156404;23;20049;-62
2023/02/26 02:55:33;;;;;;;15.90;8.73;;;;;;;7.56;80.67;95528.63;6155988;23;20491;-61
2023/02/26 02:58:05;;;;;;;21.58;8.07;;;;;;;7.67;80.57;95530.75;6156101;23;20025;-62
2023/02/26 03:00:36;;;;;;;32.15;10.98;;;;;;;7.70;80.98;95536.69;6156382;23;20052;-62
2023/02/26 03:03:13;;;;;;;27.52;10.90;;;;;;;7.83;80.27;95537.00;6155966;23;20040;-62
2023/02/26 03:05:41;;;;;;;21.50;9.23;;;;;;;7.96;80.46;95536.47;6155877;23;20052;-63
2023/02/26 03:08:12;;;;;;;24.10;9.43;;;;;;;8.11;80.18;95539.31;6155959;23;20025;-62
2023/02/26 03:10:40;;;;;;;22.67;8.73;;;;;;;8.28;79.29;95544.59;6156285;23;20025;-62
2023/02/26 03:13:14;;;;;;;19.85;8.70;;;;;;;8.39;78.96;95536.31;6155881;23;20466;-62
2023/02/26 03:15:50;;;;;;;24.95;9.50;;;;;;;8.55;78.96;95539.09;6155863;23;20523;-62
2023/02/26 03:18:30;;;;;;;25.52;8.32;;;;;;;8.68;77.91;95543.75;6156411;23;20022;-62
2023/02/26 03:21:06;;;;;;;29.10;8.65;;;;;;;8.80;78.06;95550.16;6155929;23;20021;-62
2023/02/26 03:23:39;;;;;;;32.22;8.50;;;;;;;8.88;77.79;95548.03;6156001;23;20017;-62
2023/02/26 03:26:13;;;;;;;29.08;8.50;;;;;;;8.97;77.68;95546.75;6156246;23;20096;-62
2023/02/26 03:28:45;;;;;;;26.33;8.50;;;;;;;9.04;77.48;95552.53;6155862;23;20488;-62
2023/02/26 03:31:20;;;;;;;26.13;9.27;;;;;;;9.15;76.97;95547.63;6155837;23;20021;-63
2023/02/26 03:33:54;;;;;;;25.77;8.30;;;;;;;9.21;76.98;95551.69;6155786;23;20025;-62
2023/02/26 03:36:26;;;;;;;34.92;9.13;;;;;;;9.22;76.82;95556.03;6156580;23;20017;-62
2023/02/26 03:38:59;;;;;;;31.73;9.20;;;;;;;9.29;77.04;95554.81;6156138;23;20045;-62
2023/02/26 03:41:33;;;;;;;29.33;9.00;;;;;;;9.34;76.66;95557.19;6156112;23;20044;-62
2023/02/26 03:44:06;;;;;;;24.35;7.93;;;;;;;9.42;78.08;95551.59;6155911;23;20036;-62
2023/02/26 03:46:37;;;;;;;24.02;8.38;;;;;;;9.55;78.10;95551.81;6155787;23;20025;-63
2023/02/26 03:49:10;;;;;;;25.65;8.45;;;;;;;9.60;78.59;95549.81;6156145;23;20022;-62
2023/02/26 03:51:40;;;;;;;23.38;8.40;;;;;;;9.68;78.06;95550.28;6156356;23;20053;-62
2023/02/26 03:54:14;;;;;;;24.77;8.65;;;;;;;9.74;78.00;95549.13;6158259;23;20017;-62
2023/02/26 03:56:45;;;;;;;27.25;8.82;;;;;;;9.78;78.29;95544.63;6157776;23;20022;-63
2023/02/26 03:59:13;;;;;;;32.58;7.57;;;;;;;9.83;78.64;95545.22;6157943;23;20456;-63
2023/02/26 04:01:45;;;;;;;23.80;8.38;;;;;;;9.92;78.75;95554.34;6157593;23;20069;-63
2023/02/26 04:04:19;;;;;;;24.35;7.35;;;;;;;9.97;78.43;95555.78;6157644;23;20056;-63
2023/02/26 04:06:47;;;;;;;18.63;7.72;;;;;;;10.03;78.66;95556.41;6158031;23;20486;-62
2023/02/26 04:09:15;;;;;;;24.73;7.10;;;;;;;10.04;79.37;95551.09;6157616;23;20048;-63
2023/02/26 04:11:43;;;;;;;30.05;8.38;;;;;;;10.10;79.11;95553.41;6157851;23;20466;-63
2023/02/26 04:14:11;;;;;;;22.40;8.07;;;;;;;10.14;79.38;95548.03;6157866;23;20068;-62
2023/02/26 04:16:39;;;;;;;26.60;8.20;;;;;;;10.17;79.79;95546.06;6157489;23;20096;-62
2023/02/26 04:19:06;;;;;;;29.80;8.23;;;;;;;10.19;79.80;95546.84;6157359;23;20021;-62
2023/02/26 04:21:34;;;;;;;22.30;7.93;;;;;;;10.21;80.38;95554.63;6157385;23;20026;-63
2023/02/26 04:24:01;;;;;;;22.40;7.75;;;;;;;10.29;80.47;95549.81;6157409;23;20045;-62
2023/02/26 04:26:28;;;;;;;20.33;7.50;;;;;;;10.38;80.28;95552.88;6157750;23;20017;-62
2023/02/26 04:28:55;;;;;;;32.90;11.40;;;;;;;10.38;80.43;95560.72;6157804;23;20017;-62
2023/02/26 04:31:23;;;;;;;29.15;8.57;;;;;;;10.41;80.22;95565.81;6157387;23;20032;-63
2023/02/26 04:33:50;;;;;;;22.58;7.72;;;;;;;10.44;80.43;95561.22;6157368;23;20033;-62
2023/02/26 04:36:17;;;;;;;31.25;8.50;;;;;;;10.45;80.24;95562.94;6157842;23;20049;-61
2023/02/26 04:38:46;;;;;;;23.55;8.10;;;;;;;10.50;80.13;95567.94;6157271;23;20057;-62
2023/02/26 04:41:16;;;;;;;26.35;7.10;;;;;;;10.54;80.28;95556.38;6157247;23;20022;-62
2023/02/26 04:43:43;;;;;;;19.35;7.00;;;;;;;10.59;79.85;95558.75;6157526;23;20100;-62
2023/02/26 04:46:11;;;;;;;25.58;7.97;;;;;;;10.57;80.31;95558.00;6157227;23;20092;-62
2023/02/26 04:48:38;;;;;;;29.83;7.32;;;;;;;10.56;80.51;95556.28;6157149;23;20080;-62
2023/02/26 04:51:06;;;;;;;32.17;7.25;;;;;;;10.64;80.12;95559.38;6157268;23;20333;-62
2023/02/26 04:53:33;;;;;;;26.70;7.80;;;;;;;10.71;80.36;95559.84;6157462;23;20018;-63
2023/02/26 04:56:02;;;;;;;26.08;7.63;;;;;;;10.71;79.86;95559.84;6157491;23;20080;-62
2023/02/26 04:58:29;;;;;;;27.45;7.05;;;;;;;10.71;79.97;95559.84;6157157;23;20032;-62
2023/02/26 05:00:58;;;;;;;25.88;7.15;;;;;;;10.71;79.98;95558.09;6157187;23;20076;-63
2023/02/26 05:03:25;;;;;;;22.40;7.43;;;;;;;10.68;80.12;95553.03;6156591;23;20515;-62
2023/02/26 05:05:52;;;;;;;21.80;7.30;;;;;;;10.72;80.05;95551.09;6157398;23;20096;-63
2023/02/26 05:08:19;;;;;;;17.63;6.68;;;;;;;10.72;80.14;95561.56;6157026;23;20028;-62
2023/02/26 05:10:48;;;;;;;21.25;7.68;;;;;;;10.70;80.32;95561.66;6157481;23;20344;-63
2023/02/26 05:13:16;;;;;;;18.63;6.35;;;;;;;10.70;80.62;95568.63;6157362;23;20049;-63
2023/02/26 05:15:44;;;;;;;21.05;7.13;;;;;;;10.71;80.96;95571.19;6156873;23;20096;-62
2023/02/26 05:18:11;;;;;;;24.23;7.63;;;;;;;10.72;81.24;95577.25;6157021;23;20022;-62
2023/02/26 05:20:39;;;;;;;24.00;6.35;;;;;;;10.74;81.21;95571.00;6157079;23;20017;-62
2023/02/26 05:23:07;;;;;;;22.50;7.10;;;;;;;10.76;81.43;95576.16;6156871;23;20021;-62
2023/02/26 05:25:34;;;;;;;29.33;8.15;;;;;;;10.80;81.64;95574.22;6156924;23;20092;-62
2023/02/26 05:28:02;;;;;;;24.52;8.23;;;;;;;10.79;81.85;95581.22;6157223;23;20385;-62
2023/02/26 05:30:31;;;;;;;31.77;8.32;;;;;;;10.80;82.11;95582.91;6157191;23;20021;-62
2023/02/26 05:32:58;;;;;;;47.10;19.58;;;;;;;10.83;82.43;95587.97;6156928;23;20352;-62
2023/02/26 05:35:26;;;;;;;31.02;9.80;;;;;;;10.81;82.77;95589.00;6156683;23;20018;-62
2023/02/26 05:37:53;;;;;;;28.20;10.07;;;;;;;10.84;82.67;95594.88;6156769;23;20057;-63
2023/02/26 05:40:21;;;;;;;31.30;11.00;;;;;;;10.78;83.65;95590.00;6156528;23;20352;-62
2023/02/26 05:42:50;;;;;;;25.52;10.20;;;;;;;10.82;83.95;95603.75;6157158;23;20021;-62
2023/02/26 05:45:18;;;;;;;24.30;9.18;;;;;;;10.84;83.46;95605.34;6156763;23;20018;-62
2023/02/26 05:47:47;;;;;;;26.50;10.30;;;;;;;10.85;83.54;95612.28;6156842;23;20025;-62
2023/02/26 05:50:14;;;;;;;31.17;8.70;;;;;;;10.84;83.59;95602.72;6156738;23;20021;-62
2023/02/26 05:52:41;;;;;;;25.17;8.27;;;;;;;10.86;83.55;95616.59;6156620;23;20455;-62
2023/02/26 05:55:10;;;;;;;27.73;8.70;;;;;;;10.91;83.46;95616.34;6156737;23;20022;-63
2023/02/26 05:57:37;;;;;;;25.60;8.52;;;;;;;10.92;83.32;95627.63;6156942;23;20049;-62
2023/02/26 06:00:07;;;;;;;30.10;7.43;;;;;;;10.98;83.48;95624.69;6156911;23;20057;-64
2023/02/26 06:02:34;;;;;;;24.27;6.90;;;;;;;11.09;82.95;95624.13;6157007;23;20022;-64
2023/02/26 06:05:03;;;;;;;21.48;7.40;;;;;;;11.07;82.92;95629.44;6156731;23;20391;-63
2023/02/26 06:07:30;;;;;;;20.75;6.75;;;;;;;11.07;82.76;95628.56;6156725;23;20052;-64
2023/02/26 06:09:58;;;;;;;23.85;7.10;;;;;;;11.04;83.07;95621.75;6156971;23;20072;-64
2023/02/26 06:12:25;;;;;;;24.77;7.00;;;;;;;11.12;82.69;95627.44;6157218;23;20022;-63
2023/02/26 06:14:55;;;;;;;32.55;6.90;;;;;;;11.11;82.74;95630.94;6156671;23;20018;-64
2023/02/26 06:17:22;;;;;;;27.73;6.63;;;;;;;11.12;82.71;95631.81;6156252;23;20049;-64
2023/02/26 06:19:50;;;;;;;27.17;7.00;;;;;;;11.20;82.33;95644.47;6156814;23;20018;-64
2023/02/26 06:22:20;;;;;;;19.35;7.55;;;;;;;11.26;81.88;95636.28;6156772;23;20032;-64
2023/02/26 06:24:48;;;;;;;20.90;7.70;;;;;;;11.35;81.35;95638.38;6156708;23;20018;-64
2023/02/26 06:27:16;;;;;;;37.35;8.50;;;;;;;11.40;80.97;95632.88;6157035;23;20043;-64
2023/02/26 06:29:43;;;;;;;29.50;7.18;;;;;;;11.38;81.12;95630.34;6156618;23;20040;-64
2023/02/26 06:32:10;;;;;;;20.23;6.63;;;;;;;11.46;80.47;95639.56;6156555;23;20032;-64
2023/02/26 06:34:38;;;;;;;22.48;7.45;;;;;;;11.48;80.33;95635.09;6157234;23;20025;-63
2023/02/26 06:37:06;;;;;;;24.35;7.72;;;;;;;11.50;79.79;95634.06;6156492;23;20021;-64
2023/02/26 06:39:35;;;;;;;23.27;7.25;;;;;;;11.61;79.61;95627.38;6157002;23;20388;-64
2023/02/26 06:42:02;;;;;;;24.10;7.07;;;;;;;11.79;78.38;95632.47;6156885;23;20384;-64
2023/02/26 06:44:32;;;;;;;21.42;6.55;;;;;;;12.03;76.94;95632.84;6157219;23;20052;-64
2023/02/26 06:46:59;;;;;;;24.93;6.87;;;;;;;12.31;76.44;95622.56;6156541;23;20049;-63
2023/02/26 06:49:27;;;;;;;159.35;15.57;;;;;;;12.48;74.32;95635.50;6156835;23;20068;-64
2023/02/26 06:51:57;;;;;;;5.88;1.17;;;;;;;12.45;73.91;95625.19;6156949;23;20022;-64
2023/02/26 06:54:25;;;;;;;0.30;0.30;;;;;;;12.58;73.87;95630.53;6156474;23;20022;-64
2023/02/26 06:56:56;;;;;;;0.95;0.95;;;;;;;12.67;73.64;95623.06;6157167;23;20053;-63
2023/02/26 06:59:25;;;;;;;9.75;2.55;;;;;;;12.81;72.27;95628.28;6156791;23;20025;-63
2023/02/26 07:01:52;;;;;;;1.02;1.02;;;;;;;12.96;72.13;95620.41;6156800;23;20460;-64
2023/02/26 07:04:19;;;;;;;9.48;2.63;;;;;;;13.25;70.64;95620.34;6156440;23;20022;-64
2023/02/26 07:06:46;;;;;;;10.10;9.07;;;;;;;13.73;69.05;95608.59;6156421;23;20021;-64
2023/02/26 07:09:16;;;;;;;0.47;0.30;;;;;;;14.10;67.12;95634.22;6156313;23;20065;-64
2023/02/26 07:11:44;;;;;;;0.75;0.75;;;;;;;14.32;65.82;95630.13;6156331;23;20021;-64
2023/02/26 07:14:12;;;;;;;0.65;0.65;;;;;;;14.31;65.68;95625.84;6156862;23;20029;-64
2023/02/26 07:16:40;;;;;;;4.20;2.42;;;;;;;14.18;65.80;95628.47;6156481;23;20049;-65
2023/02/26 07:19:09;;;;;;;28.75;7.22;;;;;;;14.00;66.60;95631.38;6157155;23;20025;-64
2023/02/26 07:21:39;;;;;;;29.30;6.80;;;;;;;13.93;66.29;95630.91;6156539;23;20452;-64
2023/02/26 07:24:07;;;;;;;27.20;6.13;;;;;;;13.81;67.19;95647.53;6156399;23;20065;-64
2023/02/26 07:26:35;;;;;;;19.70;6.25;;;;;;;13.76;67.30;95632.03;6157172;23;20181;-64
2023/02/26 07:29:02;;;;;;;15.98;6.10;;;;;;;13.71;67.45;95627.09;6158564;23;20032;-64
2023/02/26 07:31:30;;;;;;;21.60;5.60;;;;;;;13.73;67.03;95622.56;6158937;23;20510;-64
2023/02/26 07:33:58;;;;;;;31.80;7.47;;;;;;;13.74;67.07;95632.16;6159349;23;20017;-64
2023/02/26 07:36:26;;;;;;;21.70;6.35;;;;;;;13.81;66.50;95629.13;6158939;23;20022;-64
2023/02/26 07:38:53;;;;;;;23.63;6.28;;;;;;;13.85;66.38;95633.22;6158885;23;20088;-65
2023/02/26 07:41:21;;;;;;;18.67;5.88;;;;;;;13.93;65.77;95633.56;6159280;23;20032;-64
2023/02/26 07:43:48;;;;;;;23.42;6.00;;;;;;;14.06;65.33;95638.81;6159092;23;20052;-64
2023/02/26 07:46:18;;;;;;;25.73;5.93;;;;;;;14.12;64.42;95658.63;6158947;23;20026;-64
2023/02/26 07:48:47;;;;;;;24.17;6.63;;;;;;;14.13;64.45;95661.16;6158800;23;20522;-64
2023/02/26 07:51:14;;;;;;;26.33;6.95;;;;;;;14.20;63.87;95672.09;6158810;23;20460;-63
2023/02/26 07:53:42;;;;;;;19.95;6.35;;;;;;;14.27;63.66;95675.19;6158834;23;20018;-65
2023/02/26 07:56:09;;;;;;;17.15;5.65;;;;;;;14.37;62.88;95678.03;6159018;23;20018;-64
2023/02/26 07:58:37;;;;;;;19.60;5.82;;;;;;;14.28;62.94;95680.34;6158717;23;20017;-64
2023/02/26 08:01:04;;;;;;;26.08;6.32;;;;;;;14.19;63.06;95707.25;6158799;23;20064;-65
2023/02/26 08:03:31;;;;;;;25.77;6.50;;;;;;;14.21;63.36;95686.94;6158991;23;20026;-64
2023/02/26 08:06:01;;;;;;;20.02;6.53;;;;;;;14.48;62.54;95695.72;6159204;23;20052;-64
2023/02/26 08:08:32;;;;;;;17.92;5.63;;;;;;;14.89;60.82;95699.16;6158742;23;20021;-64
2023/02/26 08:11:01;;;;;;;16.98;4.95;;;;;;;15.27;58.40;95697.44;6158756;23;20025;-65
2023/02/26 08:13:34;;;;;;;13.43;5.35;;;;;;;15.48;57.89;95705.63;6158522;23;20036;-64
2023/02/26 08:16:03;;;;;;;18.55;5.20;;;;;;;15.53;57.36;95706.13;6158143;23;20338;-64
2023/02/26 08:18:31;;;;;;;21.05;5.43;;;;;;;15.72;56.49;95699.53;6159337;23;20396;-64
2023/02/26 08:21:09;;;;;;;18.58;5.63;;;;;;;15.65;56.45;95729.91;6158757;23;20089;-65
2023/02/26 08:23:36;;;;;;;22.80;6.00;;;;;;;15.60;56.27;95721.50;6158649;23;20021;-64
2023/02/26 08:26:06;;;;;;;19.40;5.22;;;;;;;15.85;56.24;95728.47;6159074;23;20092;-64
2023/02/26 08:28:34;;;;;;;26.58;6.18;;;;;;;16.23;55.26;95733.75;6158613;23;20021;-64
2023/02/26 08:31:02;;;;;;;13.45;4.78;;;;;;;16.29;53.68;95731.47;6158659;23;20029;-65
2023/02/26 08:33:29;;;;;;;12.63;4.82;;;;;;;16.31;53.26;95733.19;6158900;23;20032;-65
2023/02/26 08:35:57;;;;;;;19.15;4.47;;;;;;;16.32;53.89;95733.06;6158434;23;20021;-64
2023/02/26 08:38:27;;;;;;;20.05;4.80;;;;;;;16.20;53.00;95721.63;6158021;23;20029;-64
2023/02/26 08:40:54;;;;;;;21.63;4.35;;;;;;;16.05;53.74;95713.03;6159001;23;20109;-64
2023/02/26 08:43:22;;;;;;;16.30;4.38;;;;;;;16.11;53.42;95719.66;6159229;23;20496;-65
2023/02/26 08:45:49;;;;;;;15.05;4.32;;;;;;;16.06;54.21;95703.31;6159362;23;20021;-64
2023/02/26 08:48:16;;;;;;;18.02;5.68;;;;;;;15.78;53.62;95706.16;6157952;23;20018;-62
2023/02/26 08:50:43;;;;;;;15.00;4.45;;;;;;;15.68;54.14;95692.78;6157541;23;20112;-63
2023/02/26 08:53:11;;;;;;;13.05;4.30;;;;;;;15.66;54.45;95700.78;6157882;23;20467;-61
2023/02/26 08:55:40;;;;;;;17.10;4.50;;;;;;;15.66;54.50;95687.63;6158598;23;20021;-63
2023/02/26 08:58:07;;;;;;;21.80;4.72;;;;;;;15.62;55.18;95691.44;6157388;23;20487;-63
2023/02/26 09:00:34;;;;;;;22.25;5.20;;;;;;;15.40;55.24;95700.88;6157229;23;20456;-63
2023/02/26 09:03:03;;;;;;;17.33;4.55;;;;;;;15.44;55.70;95700.66;6157210;23;20060;-63
2023/02/26 09:05:31;;;;;;;24.67;4.97;;;;;;;15.37;55.88;95695.81;6157734;23;20043;-64
2023/02/26 09:07:58;;;;;;;21.25;4.88;;;;;;;15.37;56.39;95690.56;6158432;23;20080;-64
2023/02/26 09:10:26;;;;;;;17.02;4.93;;;;;;;15.47;55.50;95688.09;6158345;23;20093;-64
2023/02/26 09:12:55;;;;;;;24.42;5.40;;;;;;;15.38;55.67;95708.03;6158350;23;20018;-65
2023/02/26 09:15:23;;;;;;;17.83;4.70;;;;;;;15.34;56.67;95692.56;6158776;23;20021;-65
2023/02/26 09:17:50;;;;;;;18.08;4.15;;;;;;;15.44;55.71;95692.75;6158539;23;20028;-64
2023/02/26 09:20:18;;;;;;;15.00;4.90;;;;;;;15.32;56.10;95702.38;6159191;23;20024;-64
2023/02/26 09:22:45;;;;;;;18.35;4.28;;;;;;;15.37;55.40;95701.09;6158483;23;20033;-65
2023/02/26 09:25:14;;;;;;;30.85;4.63;;;;;;;15.31;55.42;95698.91;6158393;23;20029;-64
2023/02/26 09:27:41;;;;;;;24.85;4.85;;;;;;;15.24;55.80;95687.09;6157097;23;20448;-62
2023/02/26 09:30:13;;;;;;;21.85;4.20;;;;;;;15.15;55.51;95663.09;6157557;23;20039;-63
2023/02/26 09:32:40;;;;;;;17.05;4.90;;;;;;;15.16;55.90;95669.19;6156924;23;20017;-63
2023/02/26 09:35:08;;;;;;;19.95;4.93;;;;;;;15.19;55.60;95684.78;6157005;23;20436;-63
2023/02/26 09:37:36;;;;;;;19.98;5.00;;;;;;;15.12;56.35;95683.53;6156742;23;20405;-63
2023/02/26 09:40:04;;;;;;;27.30;5.30;;;;;;;15.14;55.41;95693.00;6156774;23;20025;-63
2023/02/26 09:42:52;;;;;;;22.90;4.43;;;;;;;15.20;55.19;95706.72;6157120;23;20092;-62
2023/02/26 09:45:27;;;;;;;17.88;4.72;;;;;;;15.20;55.26;95728.63;6157024;23;20022;-63
2023/02/26 09:47:56;;;;;;;20.77;4.90;;;;;;;15.22;55.79;95731.13;6156762;23;20097;-63
2023/02/26 09:50:28;;;;;;;14.25;5.07;;;;;;;15.12;55.51;95728.31;6156566;23;20022;-63
2023/02/26 09:53:01;;;;;;;20.73;5.25;;;;;;;15.01;55.92;95755.38;6157001;23;20076;-64
2023/02/26 09:55:32;;;;;;;18.50;4.55;;;;;;;14.94;56.25;95744.44;6156857;23;20097;-64
2023/02/26 09:58:03;;;;;;;27.52;4.95;;;;;;;14.86;56.59;95736.22;6157200;23;20093;-63
2023/02/26 10:00:38;;;;;;;19.30;4.95;;;;;;;14.82;57.10;95703.16;6156709;23;20076;-64
2023/02/26 10:03:21;;;;;;;13.40;4.60;;;;;;;14.82;57.37;95711.91;6156604;23;20084;-63
2023/02/26 10:06:12;;;;;;;15.07;4.63;;;;;;;14.96;56.98;95710.09;6156529;23;20494;-64
2023/02/26 10:08:48;;;;;;;18.02;5.03;;;;;;;14.96;56.08;95702.22;6156239;23;20460;-64
2023/02/26 10:11:27;;;;;;;21.90;4.88;;;;;;;15.02;56.11;95707.06;6156337;23;20356;-64
2023/02/26 10:13:59;;;;;;;17.35;4.72;;;;;;;15.10;56.06;95699.44;6156278;23;20045;-63
2023/02/26 10:16:31;;;;;;;12.63;4.65;;;;;;;15.14;55.49;95693.00;6156325;23;20017;-64
2023/02/26 10:19:03;;;;;;;13.32;4.65;;;;;;;15.16;54.63;95693.75;6156387;23;20022;-63
2023/02/26 10:21:35;;;;;;;24.23;4.38;;;;;;;15.24;55.05;95690.59;6156377;23;20029;-64
2023/02/26 10:24:08;;;;;;;20.58;4.88;;;;;;;15.26;54.29;95701.84;6156428;23;20072;-64
2023/02/26 10:26:41;;;;;;;24.40;4.60;;;;;;;15.34;54.59;95711.00;6156722;23;20101;-63
2023/02/26 10:29:18;;;;;;;13.13;5.05;;;;;;;15.49;53.79;95690.63;6156594;23;20033;-64
2023/02/26 10:32:02;;;;;;;23.55;5.68;;;;;;;15.51;53.57;95686.91;6156362;23;20025;-63
2023/02/26 10:34:35;;;;;;;20.75;4.15;;;;;;;15.65;53.69;95691.22;6156293;23;20022;-63
2023/02/26 10:37:13;;;;;;;29.27;5.05;;;;;;;15.75;52.80;95704.56;6156733;23;20040;-64
2023/02/26 10:39:48;;;;;;;16.52;4.57;;;;;;;16.00;52.71;95670.31;6156360;23;20028;-64
2023/02/26 10:42:20;;;;;;;18.35;4.38;;;;;;;16.25;51.73;95679.88;6156306;23;20022;-63
2023/02/26 10:44:57;;;;;;;22.00;4.13;;;;;;;16.22;51.54;95685.41;6156570;23;20025;-64
2023/02/26 10:47:36;;;;;;;17.58;4.47;;;;;;;16.36;50.86;95673.81;6156194;23;20460;-64
2023/02/26 10:50:06;;;;;;;23.48;4.72;;;;;;;16.20;50.67;95671.50;6156264;23;20460;-63
2023/02/26 10:52:36;;;;;;;18.80;4.72;;;;;;;16.26;50.53;95678.94;6156208;23;20060;-64
2023/02/26 10:55:18;;;;;;;22.65;7.13;;;;;;;16.19;50.20;95692.72;6156577;23;20064;-64
2023/02/26 10:57:53;;;;;;;16.50;5.65;;;;;;;16.08;50.16;95672.41;6156131;23;20053;-64
2023/02/26 11:00:22;;;;;;;18.25;5.10;;;;;;;16.10;50.20;95675.78;6156148;23;20024;-64
2023/02/26 11:02:54;;;;;;;17.40;5.32;;;;;;;16.13;49.71;95680.78;6156253;23;20017;-63
2023/02/26 11:05:25;;;;;;;19.77;5.03;;;;;;;16.01;49.83;95672.00;6155945;23;20025;-64
2023/02/26 11:07:56;;;;;;;17.77;4.47;;;;;;;15.87;49.67;95680.91;6156121;23;20076;-63
2023/02/26 11:10:29;;;;;;;13.68;5.00;;;;;;;15.59;50.59;95657.38;6155997;23;20057;-64
2023/02/26 11:13:00;;;;;;;19.27;5.25;;;;;;;15.64;50.57;95662.31;6155571;23;20100;-64
2023/02/26 11:15:28;;;;;;;19.70;4.32;;;;;;;15.56;51.06;95654.97;6156232;23;20024;-63
2023/02/26 11:18:00;;;;;;;21.30;4.65;;;;;;;15.68;50.70;95649.78;6155871;23;20048;-63
2023/02/26 11:20:39;;;;;;;21.52;3.78;;;;;;;15.74;50.55;95655.44;6156448;23;20022;-63
2023/02/26 11:23:14;;;;;;;25.35;6.10;;;;;;;15.95;50.29;95673.25;6155946;23;20056;-63
2023/02/26 11:25:42;;;;;;;20.42;4.55;;;;;;;15.91;50.06;95674.44;6155720;23;20026;-64
2023/02/26 11:28:23;;;;;;;19.80;4.63;;;;;;;15.92;50.13;95655.88;6156027;23;20018;-64
2023/02/26 11:30:53;;;;;;;19.50;4.13;;;;;;;16.00;49.98;95658.00;6156179;23;20022;-64
2023/02/26 11:33:29;;;;;;;21.48;3.70;;;;;;;16.00;49.43;95660.63;6156408;23;20097;-63
2023/02/26 11:36:01;;;;;;;15.23;4.15;;;;;;;16.08;49.53;95678.53;6155929;23;20339;-63
2023/02/26 11:38:29;;;;;;;18.30;3.90;;;;;;;15.93;49.63;95669.91;6156084;23;20068;-61
2023/02/26 11:40:58;;;;;;;12.25;4.18;;;;;;;15.89;49.93;95658.75;6155932;23;20028;-62
2023/02/26 11:43:36;;;;;;;14.25;4.07;;;;;;;15.99;49.91;95651.03;6156389;23;20076;-64